Terminal Aerodrome Forecast
Issued by NWS Shreveport, LA

Home | Current Version | Previous Version | Text Only | Print | Product List | Glossary On
Versions: 1 2 3 4 5 6 7 8 9 10 11 12 13
000
FTUS44 KSHV 242330
TAFTYR
TAF
KTYR 242330Z 2500/2524 18012G18KT P6SM SKC
     FM250400 17012KT P6SM BKN015
      TEMPO 2504/2507 SCT020
     FM251100 31012KT P6SM SKC
      TEMPO 2511/2513 27007KT SCT025=

USA.gov is the U.S. government's official web portal to all federal, state and local government web resources and services.